Hansen, Wisconsin
Current Conditions -  °F | °C
As of 12:54 AM on Sunday 21 Dec 2014 (Local Time) from KISW Reporting Station
Haze Haze  
Wind Chill: 24°   Ceiling: 1000
Heat Index: 29°   Visibility: 6mi
Dew Point: 25°   Wind: 5mph
Humidity: 85%   Direction: 170°S
Pressure: 30.16"   Gusts: NA
Location:  44.4583°N, 90.0009°W
Report Text: KISW 210654Z AUTO 17004KT 6SM BR OVC010 M02/M04 A3016 RMK AO2 SLP227 T10171039
Loading
Personal Weather Stations






























Interactive Weather Map New forecast layout! Learn more

10-Day Weather Forecast

Advertisements
Track Severe Weather on mobile